Time;durP1;ratioP1;P1;durP2;ratioP2;P2;SDS_P1;SDS_P2;PMS_P1;PMS_P2;Temp;Humidity;BMP_temperature;BMP_pressure;BME280_temperature;BME280_humidity;BME280_pressure;Samples;Min_cycle;Max_cycle;Signal;HPM_P1;HPM_P2
2021/10/09 00:01:10;;;;;;;11.07;7.25;;;;;;;17.55;43.44;102487.25;4976607;28;20044;-77
2021/10/09 00:03:37;;;;;;;11.40;7.70;;;;;;;17.52;43.50;102496.59;4994306;28;20428;-77
2021/10/09 00:06:04;;;;;;;10.63;7.50;;;;;;;17.49;43.15;102491.31;4990256;28;20076;-76
2021/10/09 00:08:31;;;;;;;10.65;7.22;;;;;;;17.47;43.45;102483.19;4993595;28;20073;-77
2021/10/09 00:10:59;;;;;;;10.52;7.43;;;;;;;17.45;43.57;102482.44;4992183;28;20042;-77
2021/10/09 00:13:25;;;;;;;9.55;6.85;;;;;;;17.42;43.64;102485.38;4993440;28;20050;-77
2021/10/09 00:15:52;;;;;;;9.27;6.78;;;;;;;17.40;43.51;102486.47;4988660;28;20137;-76
2021/10/09 00:18:18;;;;;;;9.45;6.93;;;;;;;17.38;43.21;102485.69;4994839;28;20058;-76
2021/10/09 00:20:45;;;;;;;9.73;7.13;;;;;;;17.36;43.71;102488.56;4998494;28;20043;-77
2021/10/09 00:23:11;;;;;;;9.63;6.43;;;;;;;17.34;43.28;102482.28;5000737;28;20054;-76
2021/10/09 00:25:38;;;;;;;8.75;6.47;;;;;;;17.32;43.44;102488.84;5001572;28;20047;-76
2021/10/09 00:28:05;;;;;;;9.95;6.88;;;;;;;17.30;43.66;102486.22;4975968;28;20136;-77
2021/10/09 00:30:31;;;;;;;9.52;7.22;;;;;;;17.27;43.64;102482.81;4991148;28;20073;-77
2021/10/09 00:32:58;;;;;;;9.63;6.95;;;;;;;17.24;43.74;102478.41;4993475;28;20459;-76
2021/10/09 00:35:24;;;;;;;10.02;6.72;;;;;;;17.21;43.84;102486.88;4991943;28;20104;-77
2021/10/09 00:37:51;;;;;;;10.45;7.30;;;;;;;17.17;43.76;102490.81;4987362;28;20054;-77
2021/10/09 00:40:17;;;;;;;11.05;7.70;;;;;;;17.15;43.86;102490.03;4992418;28;20046;-76
2021/10/09 00:42:44;;;;;;;9.77;7.07;;;;;;;17.12;43.47;102487.50;4975390;28;20070;-77
2021/10/09 00:45:11;;;;;;;9.70;7.05;;;;;;;17.11;43.93;102485.75;4992256;28;20498;-77
2021/10/09 00:47:37;;;;;;;10.27;7.50;;;;;;;17.09;43.87;102493.19;4992261;28;20046;-76
2021/10/09 00:50:05;;;;;;;9.38;6.93;;;;;;;17.08;43.75;102492.31;4991554;28;20046;-76
2021/10/09 00:52:34;;;;;;;9.15;6.80;;;;;;;17.08;43.81;102486.81;4996744;28;20089;-76
2021/10/09 00:55:04;;;;;;;9.15;6.78;;;;;;;17.08;43.96;102489.56;4972884;28;20070;-77
2021/10/09 00:57:32;;;;;;;9.73;6.95;;;;;;;17.04;43.73;102485.28;4986647;28;20078;-77
2021/10/09 01:00:00;;;;;;;11.35;7.43;;;;;;;17.02;43.75;102479.00;4984071;28;20100;-77
2021/10/09 01:02:27;;;;;;;10.63;7.50;;;;;;;17.00;43.79;102485.59;4992383;28;20481;-76
2021/10/09 01:04:55;;;;;;;10.52;7.35;;;;;;;16.99;43.61;102489.31;4992098;28;20050;-76
2021/10/09 01:07:22;;;;;;;11.07;7.18;;;;;;;16.95;44.01;102485.91;4974508;28;20382;-76
2021/10/09 01:09:49;;;;;;;9.93;7.47;;;;;;;16.94;43.73;102486.88;4991291;28;20422;-76
2021/10/09 01:12:15;;;;;;;10.13;6.53;;;;;;;16.91;43.87;102484.34;4992387;28;20055;-76
2021/10/09 01:14:42;;;;;;;12.77;8.20;;;;;;;16.89;43.83;102485.41;4991487;28;20065;-76
2021/10/09 01:17:13;;;;;;;9.48;7.18;;;;;;;16.88;43.89;102484.56;4979409;28;20046;-76
2021/10/09 01:19:41;;;;;;;9.27;6.90;;;;;;;16.85;43.65;102481.13;4991636;28;20213;-76
2021/10/09 01:22:08;;;;;;;10.07;7.30;;;;;;;16.84;43.75;102479.38;4974825;28;20081;-76
2021/10/09 01:24:36;;;;;;;8.93;6.70;;;;;;;16.81;43.94;102469.47;4975899;28;20074;-76
2021/10/09 01:27:04;;;;;;;9.68;7.00;;;;;;;16.80;43.81;102472.34;4992121;28;20050;-76
2021/10/09 01:29:31;;;;;;;9.70;6.82;;;;;;;16.78;43.98;102466.09;4990731;28;20054;-76
2021/10/09 01:31:58;;;;;;;11.02;7.25;;;;;;;16.77;43.86;102465.19;4991126;28;20046;-76
2021/10/09 01:34:28;;;;;;;10.40;7.20;;;;;;;16.76;43.93;102465.28;4990755;28;20096;-76
2021/10/09 01:36:55;;;;;;;12.43;7.85;;;;;;;16.70;43.77;102464.75;4991678;28;20555;-76
2021/10/09 01:39:22;;;;;;;9.68;7.03;;;;;;;16.69;43.63;102462.97;4991107;28;20084;-76
2021/10/09 01:41:51;;;;;;;10.98;7.07;;;;;;;16.69;43.49;102468.47;4991567;28;20050;-76
2021/10/09 01:44:18;;;;;;;10.48;6.80;;;;;;;16.65;43.67;102464.16;4990425;28;20062;-76
2021/10/09 01:46:45;;;;;;;10.05;7.00;;;;;;;16.63;44.00;102459.75;4991737;28;20486;-78
2021/10/09 01:49:11;;;;;;;9.75;6.82;;;;;;;16.61;43.88;102461.72;4990080;28;20493;-76
2021/10/09 01:51:38;;;;;;;10.32;6.85;;;;;;;16.58;43.46;102459.13;4989909;28;20042;-77
2021/10/09 01:54:04;;;;;;;9.25;6.68;;;;;;;16.56;43.74;102461.09;4991831;28;20105;-77
2021/10/09 01:56:31;;;;;;;9.80;7.32;;;;;;;16.53;43.76;102464.06;4993336;28;20050;-76
2021/10/09 01:58:58;;;;;;;10.68;7.80;;;;;;;16.50;43.71;102467.88;4991143;28;20081;-77
2021/10/09 02:01:24;;;;;;;10.65;7.45;;;;;;;16.48;43.75;102460.72;4991017;28;20544;-77
2021/10/09 02:03:51;;;;;;;10.13;7.13;;;;;;;16.44;43.72;102451.84;4991411;28;20061;-77
2021/10/09 02:06:18;;;;;;;10.73;7.38;;;;;;;16.42;43.82;102456.53;4987399;28;20141;-77
2021/10/09 02:08:45;;;;;;;9.85;7.30;;;;;;;16.39;43.74;102455.88;4992150;28;20085;-77
2021/10/09 02:11:15;;;;;;;12.63;8.20;;;;;;;16.37;43.91;102453.22;4975787;28;20074;-77
2021/10/09 02:24:30;;;;;;;10.68;7.55;;;;;;;16.23;44.19;102445.88;4985764;28;20109;-77
2021/10/09 02:26:57;;;;;;;9.93;7.28;;;;;;;16.22;44.25;102446.03;4995246;28;20467;-77
2021/10/09 02:29:23;;;;;;;11.75;8.15;;;;;;;16.19;44.24;102433.38;4992554;28;20046;-77
2021/10/09 02:31:55;;;;;;;11.95;8.05;;;;;;;16.18;44.39;102437.09;5001498;28;20050;-77
2021/10/09 02:34:21;;;;;;;13.20;8.20;;;;;;;16.15;44.58;102440.03;4994062;28;20448;-77
2021/10/09 02:36:48;;;;;;;12.10;8.20;;;;;;;16.14;44.36;102437.41;4980383;28;20046;-77
2021/10/09 02:39:15;;;;;;;11.60;7.57;;;;;;;16.13;44.43;102443.88;4974676;28;20154;-77
2021/10/09 02:41:41;;;;;;;12.25;7.55;;;;;;;16.11;44.57;102440.34;4988392;28;20147;-77
2021/10/09 02:44:08;;;;;;;11.93;8.35;;;;;;;16.08;44.37;102438.69;4992800;28;20133;-77
2021/10/09 02:46:34;;;;;;;13.00;8.90;;;;;;;16.06;44.68;102434.28;4992195;28;20702;-77
2021/10/09 02:49:01;;;;;;;13.10;8.98;;;;;;;16.02;44.57;102436.34;4994217;28;20058;-77
2021/10/09 02:51:28;;;;;;;12.25;8.57;;;;;;;15.99;44.99;102437.41;4993510;28;20077;-77
2021/10/09 02:53:54;;;;;;;12.32;8.20;;;;;;;15.97;44.67;102433.03;4998060;28;20046;-77
2021/10/09 02:56:21;;;;;;;12.85;8.43;;;;;;;15.94;44.66;102434.09;4990650;28;20146;-77
2021/10/09 02:58:47;;;;;;;11.88;8.30;;;;;;;15.92;44.78;102426.94;4993277;28;20085;-77
2021/10/09 03:01:14;;;;;;;13.52;8.13;;;;;;;15.91;44.74;102431.53;4985135;28;20553;-77
2021/10/09 03:03:41;;;;;;;12.50;8.10;;;;;;;15.89;44.60;102424.41;4987157;28;20061;-77
2021/10/09 03:06:07;;;;;;;12.40;8.40;;;;;;;15.89;44.70;102435.38;4989632;28;20104;-77
2021/10/09 03:08:34;;;;;;;12.30;8.48;;;;;;;15.88;44.65;102437.25;4992850;28;20162;-76
2021/10/09 03:11:00;;;;;;;12.48;8.27;;;;;;;15.87;44.46;102434.59;4994110;28;20074;-76
2021/10/09 03:13:27;;;;;;;10.77;7.78;;;;;;;15.87;44.33;102431.84;4994807;28;20050;-76
2021/10/09 03:15:54;;;;;;;10.82;7.95;;;;;;;15.86;44.20;102430.97;4992667;28;20078;-77
2021/10/09 03:18:20;;;;;;;11.25;7.88;;;;;;;15.86;44.23;102430.09;4977771;28;20125;-76
2021/10/09 03:20:47;;;;;;;9.52;7.30;;;;;;;15.86;44.54;102438.31;4993019;28;20074;-77
2021/10/09 03:23:14;;;;;;;10.98;7.95;;;;;;;15.84;44.40;102435.66;4994983;28;20108;-77
2021/10/09 03:25:40;;;;;;;12.48;8.20;;;;;;;15.83;44.32;102430.28;4992649;28;20092;-77
2021/10/09 03:28:07;;;;;;;15.02;8.55;;;;;;;15.82;44.37;102428.50;4994552;28;20050;-78
2021/10/09 03:30:34;;;;;;;12.85;8.70;;;;;;;15.79;44.14;102426.88;4989437;28;20066;-77
2021/10/09 03:33:00;;;;;;;11.85;8.80;;;;;;;15.78;44.18;102426.97;4995087;28;20070;-77
2021/10/09 03:35:27;;;;;;;13.35;9.05;;;;;;;15.77;44.64;102433.41;4993195;28;20109;-77
2021/10/09 03:37:54;;;;;;;14.10;9.70;;;;;;;15.74;44.64;102425.38;4993184;28;20078;-77
2021/10/09 03:40:22;;;;;;;12.95;9.60;;;;;;;15.71;44.59;102436.53;4992881;28;20065;-77
2021/10/09 03:42:57;;;;;;;14.70;10.32;;;;;;;15.67;44.36;102433.09;4994300;28;20057;-77
2021/10/09 03:53:35;;;;;;;14.75;9.40;;;;;;;15.54;44.86;102437.59;4993693;28;20121;-77
2021/10/09 03:56:02;;;;;;;14.38;9.25;;;;;;;15.49;44.72;102436.97;4994092;28;20070;-77
2021/10/09 03:58:29;;;;;;;14.60;9.98;;;;;;;15.47;45.04;102433.47;4993123;28;20138;-78
2021/10/09 04:00:56;;;;;;;14.57;9.32;;;;;;;15.43;44.95;102432.75;4988105;28;20517;-78
2021/10/09 04:03:23;;;;;;;12.55;8.93;;;;;;;15.42;44.87;102432.84;4993228;28;20129;-78
2021/10/09 04:05:49;;;;;;;14.05;10.10;;;;;;;15.40;44.90;102432.94;4992002;28;20050;-78
2021/10/09 04:08:16;;;;;;;14.18;9.82;;;;;;;15.39;44.85;102430.31;4994222;28;20054;-78
2021/10/09 04:10:42;;;;;;;14.85;9.70;;;;;;;15.37;44.95;102432.25;4985922;28;20042;-78
2021/10/09 04:13:09;;;;;;;13.95;9.10;;;;;;;15.35;44.94;102434.19;4994022;28;20078;-77
2021/10/09 04:15:36;;;;;;;15.18;9.30;;;;;;;15.34;44.97;102443.38;4991851;28;20418;-77
2021/10/09 04:18:02;;;;;;;11.90;8.52;;;;;;;15.33;44.98;102447.09;4993664;28;20057;-77
2021/10/09 04:20:29;;;;;;;12.70;8.60;;;;;;;15.31;44.65;102447.22;4991081;28;20085;-76
2021/10/09 04:22:56;;;;;;;12.88;8.77;;;;;;;15.32;44.91;102445.38;4993780;28;20137;-76
2021/10/09 04:25:23;;;;;;;12.77;8.73;;;;;;;15.32;44.52;102448.09;4990906;28;20133;-77
2021/10/09 04:27:49;;;;;;;12.65;8.68;;;;;;;15.30;44.51;102445.44;4993280;28;20478;-76
2021/10/09 04:30:16;;;;;;;12.93;8.65;;;;;;;15.30;44.98;102441.84;4995099;28;20324;-76
2021/10/09 04:32:42;;;;;;;13.35;9.10;;;;;;;15.29;44.45;102443.69;4979673;28;20490;-76
2021/10/09 04:35:10;;;;;;;13.38;9.70;;;;;;;15.28;44.45;102446.50;4982979;28;20054;-77
2021/10/09 04:37:37;;;;;;;12.43;8.50;;;;;;;15.28;44.18;102447.38;4993195;28;20078;-77
2021/10/09 04:40:04;;;;;;;14.43;9.25;;;;;;;15.27;44.68;102442.00;4977598;28;20104;-76
2021/10/09 04:42:31;;;;;;;14.10;9.50;;;;;;;15.23;44.63;102441.34;4993415;28;20105;-76
2021/10/09 04:44:58;;;;;;;11.88;8.40;;;;;;;15.22;44.48;102440.44;4992155;28;20497;-76
2021/10/09 04:47:24;;;;;;;15.80;10.05;;;;;;;15.22;44.58;102436.81;4991752;28;20093;-76
2021/10/09 04:49:51;;;;;;;13.85;8.75;;;;;;;15.20;44.33;102446.97;4990155;28;20050;-76
2021/10/09 04:52:18;;;;;;;13.20;8.98;;;;;;;15.18;44.44;102436.13;4993345;28;20074;-76
2021/10/09 04:54:44;;;;;;;12.48;8.18;;;;;;;15.16;44.48;102429.84;4991595;28;20466;-76
2021/10/09 04:57:12;;;;;;;12.63;8.75;;;;;;;15.14;44.35;102437.31;4993142;28;20109;-77
2021/10/09 04:59:38;;;;;;;13.13;9.20;;;;;;;15.13;44.33;102430.06;4990572;28;20478;-76
2021/10/09 05:02:05;;;;;;;13.32;9.07;;;;;;;15.12;44.60;102438.34;4993029;28;20042;-76
2021/10/09 05:04:32;;;;;;;13.68;9.27;;;;;;;15.10;44.36;102432.09;4991610;28;20054;-76
2021/10/09 05:06:58;;;;;;;12.95;8.88;;;;;;;15.08;44.18;102437.66;4990626;28;20588;-76
2021/10/09 05:09:25;;;;;;;13.82;8.75;;;;;;;15.06;44.21;102431.41;4992158;28;20445;-76
2021/10/09 05:11:51;;;;;;;14.93;9.85;;;;;;;15.05;44.45;102440.59;4992251;28;20085;-76
2021/10/09 05:14:18;;;;;;;14.75;9.15;;;;;;;15.03;44.33;102442.53;4991204;28;20050;-76
2021/10/09 05:16:44;;;;;;;14.13;9.65;;;;;;;15.01;44.16;102441.72;4990852;28;20386;-77
2021/10/09 05:19:11;;;;;;;15.07;9.20;;;;;;;15.00;44.30;102439.09;4975532;28;20153;-76
2021/10/09 05:21:38;;;;;;;15.95;9.95;;;;;;;14.98;44.33;102436.47;4992665;28;20112;-76
2021/10/09 05:24:05;;;;;;;14.15;9.55;;;;;;;14.96;44.26;102435.66;4990031;28;20410;-77
2021/10/09 05:26:32;;;;;;;14.93;9.50;;;;;;;14.96;44.35;102438.41;4991729;28;20506;-76
2021/10/09 05:28:58;;;;;;;13.57;9.32;;;;;;;14.95;44.65;102443.97;4991463;28;20698;-76
2021/10/09 05:31:27;;;;;;;13.32;8.65;;;;;;;14.93;44.47;102445.91;4991609;28;20061;-76
2021/10/09 05:33:53;;;;;;;13.52;8.88;;;;;;;14.90;44.06;102438.78;4992616;28;20054;-76
2021/10/09 05:36:21;;;;;;;14.05;9.55;;;;;;;14.90;44.35;102441.50;4973148;28;20134;-76
2021/10/09 05:38:49;;;;;;;14.25;9.68;;;;;;;14.88;44.06;102437.97;4991746;28;20120;-76
2021/10/09 05:41:15;;;;;;;13.07;8.77;;;;;;;14.85;44.07;102439.03;4991404;28;20137;-76
2021/10/09 05:43:43;;;;;;;14.35;8.80;;;;;;;14.84;44.29;102441.84;4991457;28;20054;-76
2021/10/09 05:46:10;;;;;;;12.02;8.48;;;;;;;14.82;44.05;102435.63;4989305;28;20081;-76
2021/10/09 05:48:39;;;;;;;14.80;9.45;;;;;;;14.81;44.45;102445.69;4991392;28;20064;-76
2021/10/09 05:51:14;;;;;;;15.00;9.30;;;;;;;14.80;44.10;102443.91;4973448;28;20050;-77
2021/10/09 06:31:11;;;;;;;15.52;9.63;;;;;;;14.52;44.81;102479.28;4993702;28;20050;-76
2021/10/09 06:43:01;;;;;;;15.27;9.77;;;;;;;14.58;45.28;102492.59;4992191;28;20129;-77
2021/10/09 07:01:46;;;;;;;13.52;9.20;;;;;;;14.78;45.50;102495.06;4982539;28;20055;-77
2021/10/09 07:04:13;;;;;;;16.65;9.90;;;;;;;14.83;45.91;102500.25;4989834;28;20061;-77
2021/10/09 07:06:41;;;;;;;18.13;10.95;;;;;;;14.85;46.16;102498.31;4972953;28;20073;-77
2021/10/09 07:09:08;;;;;;;16.05;10.70;;;;;;;14.88;45.77;102503.63;4994047;28;20479;-77
2021/10/09 07:11:34;;;;;;;15.48;10.07;;;;;;;14.90;45.84;102495.31;4991713;28;20054;-77
2021/10/09 07:14:01;;;;;;;16.75;10.68;;;;;;;14.94;46.12;102505.09;4994290;28;20109;-78
2021/10/09 07:16:27;;;;;;;15.90;10.38;;;;;;;14.96;46.16;102506.78;4991251;28;20046;-78
2021/10/09 07:18:54;;;;;;;16.02;10.13;;;;;;;14.99;45.65;102511.19;4997705;28;20046;-78
2021/10/09 07:21:21;;;;;;;14.00;9.60;;;;;;;15.02;45.77;102511.88;5008181;28;20066;-77
2021/10/09 07:23:48;;;;;;;13.68;9.65;;;;;;;15.05;45.84;102513.56;4995786;28;20485;-77
2021/10/09 07:26:14;;;;;;;17.60;9.77;;;;;;;15.09;46.00;102523.34;4991329;28;20137;-77
2021/10/09 07:28:41;;;;;;;15.05;10.60;;;;;;;15.13;45.85;102514.00;4995994;28;20544;-78
2021/10/09 07:31:07;;;;;;;14.50;10.45;;;;;;;15.14;46.16;102522.13;4995398;28;20065;-77
2021/10/09 07:33:34;;;;;;;15.43;10.27;;;;;;;15.18;45.95;102526.41;4991463;28;20058;-77
2021/10/09 07:36:00;;;;;;;15.73;10.32;;;;;;;15.21;45.99;102528.09;4993703;28;20124;-77
2021/10/09 07:38:27;;;;;;;14.57;9.68;;;;;;;15.24;45.97;102525.16;4989183;28;20124;-78
2021/10/09 07:40:54;;;;;;;16.02;10.63;;;;;;;15.27;46.29;102529.56;4994432;28;20073;-77
2021/10/09 07:43:22;;;;;;;16.23;10.23;;;;;;;15.32;46.22;102533.78;4990156;28;20129;-77
2021/10/09 07:45:49;;;;;;;16.40;10.32;;;;;;;15.33;46.07;102526.47;4984792;28;20096;-77
2021/10/09 07:48:15;;;;;;;17.58;11.23;;;;;;;15.35;46.06;102535.47;4991679;28;20051;-78
2021/10/09 08:05:34;;;;;;;15.32;9.27;;;;;;;15.42;46.67;102529.53;4976902;28;20096;-78
2021/10/09 08:08:02;;;;;;;14.65;9.60;;;;;;;15.49;46.39;102536.38;4993537;28;20046;-77
2021/10/09 08:10:29;;;;;;;15.25;9.52;;;;;;;15.53;46.42;102537.09;4992316;28;20057;-77
2021/10/09 08:46:59;;;;;;;14.85;8.70;;;;;;;15.96;46.74;102541.72;4991419;28;20093;-77
2021/10/09 08:49:26;;;;;;;14.20;9.02;;;;;;;16.04;46.73;102549.47;4974621;28;20117;-77
2021/10/09 08:51:53;;;;;;;12.98;8.20;;;;;;;16.10;46.38;102548.19;4991812;28;20112;-77
2021/10/09 08:54:20;;;;;;;13.65;8.98;;;;;;;16.14;46.75;102547.03;4988956;28;20473;-77
2021/10/09 08:56:48;;;;;;;14.05;9.27;;;;;;;16.20;46.54;102546.63;4982878;28;20054;-77
2021/10/09 08:59:27;;;;;;;14.05;9.25;;;;;;;16.27;46.25;102548.00;4992236;28;20051;-77
2021/10/09 09:02:15;;;;;;;14.50;8.45;;;;;;;16.34;46.05;102541.13;4975690;28;20085;-77
2021/10/09 09:40:01;;;;;;;12.27;8.07;;;;;;;17.14;45.52;102545.88;4992559;28;20520;-78
2021/10/09 09:42:28;;;;;;;13.15;8.23;;;;;;;17.19;45.55;102535.50;4991953;28;20116;-79
2021/10/09 09:45:00;;;;;;;11.75;7.90;;;;;;;17.30;45.11;102541.13;4989987;28;20073;-79
2021/10/09 09:47:37;;;;;;;12.00;8.52;;;;;;;17.38;45.24;102535.97;4976535;28;20129;-78
2021/10/09 09:50:07;;;;;;;11.48;7.97;;;;;;;17.45;45.25;102539.22;4963852;28;20050;-78
2021/10/09 09:52:42;;;;;;;13.05;8.52;;;;;;;17.54;44.95;102530.34;4992409;28;20042;-79
2021/10/09 09:55:11;;;;;;;10.50;7.75;;;;;;;17.62;45.33;102525.22;4992695;28;20070;-79
2021/10/09 09:57:39;;;;;;;12.95;7.95;;;;;;;17.72;45.51;102526.31;4973723;28;20054;-80
2021/10/09 10:00:16;;;;;;;10.02;7.18;;;;;;;17.85;44.85;102529.97;4984265;28;20054;-78
2021/10/09 10:02:54;;;;;;;12.93;8.93;;;;;;;17.96;44.50;102522.81;4987500;28;20556;-79
2021/10/09 10:05:24;;;;;;;11.95;7.90;;;;;;;18.05;45.27;102530.41;4982627;28;20454;-79
2021/10/09 10:07:52;;;;;;;12.00;8.10;;;;;;;18.15;45.39;102535.13;4984061;28;20500;-81
2021/10/09 10:10:18;;;;;;;12.10;8.40;;;;;;;18.26;45.34;102528.88;4968498;28;20493;-79
2021/10/09 10:12:47;;;;;;;13.63;8.13;;;;;;;18.38;45.38;102527.94;4989264;28;20125;-79
2021/10/09 10:15:14;;;;;;;11.52;7.90;;;;;;;18.48;45.22;102525.41;4988641;28;20046;-79
2021/10/09 10:17:46;;;;;;;14.02;8.50;;;;;;;18.62;44.00;102520.69;4988721;28;20121;-78
2021/10/09 10:20:22;;;;;;;11.77;8.32;;;;;;;18.70;44.44;102519.22;4989566;28;20078;-79
2021/10/09 10:22:50;;;;;;;11.52;8.40;;;;;;;18.81;44.26;102514.69;4972145;28;20505;-78
2021/10/09 10:25:23;;;;;;;13.23;8.88;;;;;;;18.98;43.40;102527.16;4977282;28;20054;-80
2021/10/09 10:28:03;;;;;;;11.05;8.02;;;;;;;19.06;43.14;102513.69;4989094;28;20104;-81
2021/10/09 10:30:32;;;;;;;13.15;8.85;;;;;;;19.16;43.54;102519.38;4982488;28;20473;-80
2021/10/09 10:32:59;;;;;;;12.35;8.25;;;;;;;19.23;43.23;102520.66;4981887;28;20104;-80
2021/10/09 10:35:28;;;;;;;13.02;8.48;;;;;;;19.35;43.14;102520.59;4988870;28;20043;-79
2021/10/09 10:38:00;;;;;;;11.55;8.20;;;;;;;19.42;43.49;102512.75;4976575;28;20421;-80
2021/10/09 10:40:46;;;;;;;;;;;;;;;19.24;43.65;102516.94;4990662;28;20081;-79
2021/10/09 10:46:30;;;;;;;;;;;;;;;19.43;43.54;102516.38;4982615;28;20046;-79
2021/10/09 10:49:01;;;;;;;10.95;6.20;;;;;;;19.81;43.82;102510.63;4992787;28;19921;-79
2021/10/09 10:56:58;;;;;;;10.00;7.40;;;;;;;20.21;42.43;102509.19;4992077;28;20508;-78
2021/10/09 10:59:59;;;;;;;11.85;7.80;;;;;;;20.32;41.27;102511.06;4971044;28;20081;-78
2021/10/09 11:02:38;;;;;;;10.50;6.97;;;;;;;20.42;42.18;102506.59;4981210;28;20105;-78
2021/10/09 11:05:15;;;;;;;11.32;7.75;;;;;;;20.53;41.13;102501.06;4992598;28;20080;-79
2021/10/09 11:07:45;;;;;;;13.88;8.20;;;;;;;20.61;41.86;102503.16;4992998;28;20108;-78
2021/10/09 11:10:18;;;;;;;10.80;7.68;;;;;;;20.72;41.22;102508.69;4992820;28;20082;-77
2021/10/09 11:12:49;;;;;;;10.57;7.20;;;;;;;20.81;42.00;102506.03;4982226;28;20086;-78
2021/10/09 11:15:20;;;;;;;11.18;6.97;;;;;;;20.89;41.82;102509.03;4992329;28;20066;-78
2021/10/09 11:17:57;;;;;;;10.50;6.75;;;;;;;21.01;41.60;102508.97;4992766;28;20054;-78
2021/10/09 11:20:29;;;;;;;9.93;6.80;;;;;;;21.10;41.10;102503.56;4991939;28;20093;-79
2021/10/09 11:22:59;;;;;;;7.30;5.03;;;;;;;21.19;41.94;102508.31;4993364;28;20081;-79
2021/10/09 11:25:27;;;;;;;9.27;5.57;;;;;;;21.32;41.76;102499.00;4974945;28;20252;-78
2021/10/09 11:27:54;;;;;;;8.82;5.60;;;;;;;;;;4992149;28;20051;-79
2021/10/09 11:30:22;;;;;;;8.60;6.35;;;;;;;21.55;42.24;102495.13;4992529;28;20050;-81
2021/10/09 11:32:49;;;;;;;9.70;6.15;;;;;;;21.69;42.61;102492.00;4988231;28;20042;-81
2021/10/09 11:35:29;;;;;;;10.25;6.60;;;;;;;21.84;42.33;102487.00;4992135;28;20137;-80
2021/10/09 11:37:56;;;;;;;8.35;6.25;;;;;;;21.98;42.15;102484.81;4992289;28;20042;-80
2021/10/09 11:45:45;;;;;;;9.77;6.28;;;;;;;22.41;40.87;102480.91;4992102;28;20050;-83
2021/10/09 11:54:22;;;;;;;9.68;6.47;;;;;;;22.77;39.56;102476.69;4986331;28;20054;-81
2021/10/09 11:56:49;;;;;;;9.25;6.28;;;;;;;22.86;40.26;102477.72;4958688;28;20087;-82
2021/10/09 11:59:34;;;;;;;9.10;6.32;;;;;;;22.97;39.21;102472.94;4991608;28;20146;-83
2021/10/09 12:02:00;;;;;;;9.65;6.65;;;;;;;23.04;39.86;102474.13;4992762;28;20089;-81
2021/10/09 12:04:27;;;;;;;8.80;6.53;;;;;;;23.14;39.29;102474.13;4988490;28;20046;-82
2021/10/09 12:06:59;;;;;;;9.25;6.50;;;;;;;23.23;39.65;102467.69;4971563;28;20061;-80
2021/10/09 12:09:42;;;;;;;;;;;;;;;22.99;39.71;102461.69;4970597;28;20074;-80
2021/10/09 12:12:23;;;;;;;10.55;6.03;;;;;;;23.31;38.94;102465.06;4969632;28;19965;-82
2021/10/09 12:14:53;;;;;;;9.55;6.10;;;;;;;23.41;38.74;102456.75;4991824;28;20045;-81
2021/10/09 12:17:22;;;;;;;9.45;6.53;;;;;;;23.47;38.76;102468.13;4992151;28;20200;-81
2021/10/09 12:19:59;;;;;;;10.18;6.35;;;;;;;23.55;37.62;102459.13;4989531;28;20109;-81
2021/10/09 12:22:27;;;;;;;9.48;6.88;;;;;;;23.56;38.91;102460.84;4992636;28;20460;-82
2021/10/09 12:24:55;;;;;;;9.57;7.22;;;;;;;23.60;37.99;102456.78;4974259;28;20074;-79
2021/10/09 12:27:26;;;;;;;10.30;6.80;;;;;;;23.65;38.19;102448.00;4992407;28;20086;-82
2021/10/09 12:30:12;;;;;;;8.75;6.65;;;;;;;23.68;37.74;102444.94;4991440;28;20143;-81
2021/10/09 12:32:44;;;;;;;11.00;6.97;;;;;;;23.73;37.86;102440.69;4992553;28;20461;-82
2021/10/09 12:35:22;;;;;;;9.52;6.82;;;;;;;23.73;38.00;102446.22;4992537;28;20109;-83
2021/10/09 12:37:56;;;;;;;8.95;6.32;;;;;;;23.82;37.02;102436.13;4993098;28;20081;-84
2021/10/09 12:40:35;;;;;;;9.40;6.82;;;;;;;23.83;37.62;102441.53;4998997;28;20141;-82
2021/10/09 12:43:02;;;;;;;10.80;7.28;;;;;;;23.83;37.44;102432.31;4993173;28;20470;-83
2021/10/09 12:45:29;;;;;;;9.73;6.60;;;;;;;23.85;37.00;102439.50;4972896;28;20066;-79
2021/10/09 12:48:00;;;;;;;10.23;7.35;;;;;;;23.86;36.35;102432.03;4984039;28;20054;-85
2021/10/09 12:50:31;;;;;;;8.25;6.05;;;;;;;23.89;36.96;102423.41;4980124;28;20058;-80
2021/10/09 12:52:57;;;;;;;8.43;6.50;;;;;;;23.88;36.96;102433.63;4997005;28;20133;-84
2021/10/09 12:55:26;;;;;;;9.52;6.22;;;;;;;23.93;37.22;102429.53;4992356;28;20077;-84
2021/10/09 12:57:55;;;;;;;10.57;6.95;;;;;;;23.94;36.84;102426.63;4973181;28;20050;-83
2021/10/09 13:00:24;;;;;;;8.02;6.00;;;;;;;23.97;36.78;102420.75;4992611;28;20136;-84
2021/10/09 13:02:51;;;;;;;10.80;6.63;;;;;;;23.98;37.22;102421.63;4993921;28;20050;-84
2021/10/09 13:05:20;;;;;;;9.43;5.60;;;;;;;24.04;37.22;102413.59;4969781;28;20522;-85
2021/10/09 13:07:47;;;;;;;8.32;5.30;;;;;;;24.06;36.77;102413.41;4988871;28;20070;-86
2021/10/09 13:10:14;;;;;;;9.45;6.07;;;;;;;24.10;36.96;102412.09;4989670;28;20137;-87
2021/10/09 13:12:44;;;;;;;7.90;6.07;;;;;;;24.16;36.81;102408.69;4974729;28;20161;-79
2021/10/09 13:15:12;;;;;;;8.25;5.97;;;;;;;24.17;36.98;102403.00;4981974;28;20054;-83
2021/10/09 13:17:38;;;;;;;8.90;6.35;;;;;;;24.21;36.97;102403.59;4973409;28;20081;-86
2021/10/09 13:20:06;;;;;;;10.13;7.13;;;;;;;24.24;35.94;102400.50;4983861;28;20048;-83
2021/10/09 13:22:34;;;;;;;9.98;7.47;;;;;;;24.23;35.63;102399.63;4993485;28;20493;-83
2021/10/09 13:25:40;;;;;;;10.57;7.68;;;;;;;24.24;34.58;102398.59;4987810;28;20073;-83
2021/10/09 13:28:10;;;;;;;10.00;6.95;;;;;;;24.18;35.33;102401.09;4986653;28;20058;-83
2021/10/09 13:30:38;;;;;;;9.95;6.97;;;;;;;24.13;35.41;102406.25;4988778;28;20054;-84
2021/10/09 13:33:04;;;;;;;9.60;6.80;;;;;;;24.08;35.07;102403.03;4973810;28;20144;-84
2021/10/09 13:35:32;;;;;;;10.98;6.82;;;;;;;24.02;35.45;102400.88;4989599;28;20076;-84
2021/10/09 13:38:01;;;;;;;9.18;5.68;;;;;;;23.99;35.99;102392.84;4971194;28;20046;-83
2021/10/09 13:40:29;;;;;;;8.80;6.30;;;;;;;23.95;35.89;102396.97;4965172;28;20054;-84
2021/10/09 13:42:58;;;;;;;10.23;6.53;;;;;;;23.96;35.65;102398.72;4989798;28;20128;-83
2021/10/09 13:45:25;;;;;;;8.48;6.38;;;;;;;23.91;35.65;102390.84;4979622;28;20560;-84
2021/10/09 13:47:52;;;;;;;9.27;7.20;;;;;;;23.88;35.29;102388.38;4989146;28;20057;-84
2021/10/09 13:50:21;;;;;;;9.52;6.68;;;;;;;23.83;35.58;102399.91;4989447;28;20050;-82
2021/10/09 13:52:48;;;;;;;9.63;6.40;;;;;;;23.79;35.13;102401.25;4988357;28;20074;-83
2021/10/09 13:55:15;;;;;;;9.88;6.75;;;;;;;23.74;34.96;102391.63;4982844;28;20401;-83
2021/10/09 13:57:41;;;;;;;9.43;6.22;;;;;;;23.69;35.10;102394.88;4990033;28;20096;-84
2021/10/09 14:00:09;;;;;;;11.15;6.88;;;;;;;23.64;35.13;102394.41;4989145;28;20054;-82
2021/10/09 14:02:38;;;;;;;8.57;6.03;;;;;;;23.60;35.51;102386.56;4989346;28;20560;-84
2021/10/09 14:05:05;;;;;;;9.30;6.78;;;;;;;23.56;35.39;102383.22;4974452;28;20100;-83
2021/10/09 14:07:32;;;;;;;10.60;6.88;;;;;;;23.52;35.10;102382.66;4988975;28;20460;-82
2021/10/09 14:09:58;;;;;;;9.15;7.00;;;;;;;23.48;35.40;102378.41;4967978;28;20051;-83
2021/10/09 14:12:25;;;;;;;11.20;7.40;;;;;;;23.44;35.02;102378.84;4973309;28;20556;-83
2021/10/09 14:14:54;;;;;;;10.30;7.60;;;;;;;23.38;35.27;102373.91;4989435;28;20050;-84
2021/10/09 14:17:21;;;;;;;10.10;7.22;;;;;;;23.34;35.28;102373.31;4990050;28;20257;-83
2021/10/09 14:20:05;;;;;;;9.90;7.05;;;;;;;23.31;35.20;102378.25;4989917;28;20046;-81
2021/10/09 14:22:32;;;;;;;8.88;6.50;;;;;;;23.26;35.30;102367.63;4976963;28;20069;-84
2021/10/09 14:24:59;;;;;;;11.00;6.93;;;;;;;23.25;35.64;102365.00;4990414;28;20490;-83
2021/10/09 14:27:29;;;;;;;9.65;6.28;;;;;;;23.22;35.88;102362.56;4993262;28;20081;-83
2021/10/09 14:29:57;;;;;;;9.32;7.07;;;;;;;23.20;35.77;102364.59;4975464;28;20050;-84
2021/10/09 14:32:25;;;;;;;8.98;6.53;;;;;;;23.18;35.42;102361.97;4976962;28;20457;-80